Mc David, Florida
Current Conditions -  °F | °C
As of 12:56 PM on Thursday 27 Nov 2014 (Local Time) from KNSE Reporting Station
Clear Clear  
Wind Chill: 57°   Ceiling: Unl
Heat Index: 57°   Visibility: 10mi
Dew Point: 32°   Wind: 10mph
Humidity: 39%   Direction: 320°NW
Pressure: 30.34"   Gusts: 18mph
Location:  30.8697°N, 87.4663°W
Report Text: KNSE 271856Z AUTO 32009G16KT 10SM CLR 14/00 A3034 RMK AO2 SLP260 T01390000 $
Loading
Personal Weather Stations






























Interactive Weather Map New forecast layout! Learn more

10-Day Weather Forecast

Advertisements
Track Severe Weather on mobile